sensor_id;sensor_type;location;lat;lon;timestamp;temperature;humidity
10419;DHT22;5256;48.728;9.140;2022-12-18T00:02:04;-12.00;99.90
10419;DHT22;5256;48.728;9.140;2022-12-18T00:04:30;-11.90;99.90
10419;DHT22;5256;48.728;9.140;2022-12-18T00:06:55;-11.90;99.90
10419;DHT22;5256;48.728;9.140;2022-12-18T00:09:21;-11.90;99.90
10419;DHT22;5256;48.728;9.140;2022-12-18T00:11:47;-12.00;99.90
10419;DHT22;5256;48.728;9.140;2022-12-18T00:14:13;-12.10;99.90
10419;DHT22;5256;48.728;9.140;2022-12-18T00:16:39;-12.10;99.90
10419;DHT22;5256;48.728;9.140;2022-12-18T00:19:05;-12.20;99.90
10419;DHT22;5256;48.728;9.140;2022-12-18T00:21:32;-12.20;99.90
10419;DHT22;5256;48.728;9.140;2022-12-18T00:23:59;-12.20;99.90
10419;DHT22;5256;48.728;9.140;2022-12-18T00:26:29;-12.30;99.90
10419;DHT22;5256;48.728;9.140;2022-12-18T00:29:03;-12.30;99.90
10419;DHT22;5256;48.728;9.140;2022-12-18T00:31:28;-12.40;99.90
10419;DHT22;5256;48.728;9.140;2022-12-18T00:33:58;-12.40;99.90
10419;DHT22;5256;48.728;9.140;2022-12-18T00:36:26;-12.30;99.90
10419;DHT22;5256;48.728;9.140;2022-12-18T00:38:54;-12.20;99.90
10419;DHT22;5256;48.728;9.140;2022-12-18T00:41:19;-12.10;99.90
10419;DHT22;5256;48.728;9.140;2022-12-18T00:44:05;-12.10;99.90
10419;DHT22;5256;48.728;9.140;2022-12-18T00:46:31;-12.20;99.90
10419;DHT22;5256;48.728;9.140;2022-12-18T00:48:57;-12.20;99.90
10419;DHT22;5256;48.728;9.140;2022-12-18T00:51:24;-12.20;99.90
10419;DHT22;5256;48.728;9.140;2022-12-18T00:53:50;-12.20;99.90
10419;DHT22;5256;48.728;9.140;2022-12-18T00:56:15;-12.20;99.90
10419;DHT22;5256;48.728;9.140;2022-12-18T00:58:41;-12.20;99.90
10419;DHT22;5256;48.728;9.140;2022-12-18T01:01:07;-12.10;99.90
10419;DHT22;5256;48.728;9.140;2022-12-18T01:03:32;-12.10;99.90
10419;DHT22;5256;48.728;9.140;2022-12-18T01:05:58;-12.20;99.90
10419;DHT22;5256;48.728;9.140;2022-12-18T01:08:24;-12.20;99.90
10419;DHT22;5256;48.728;9.140;2022-12-18T01:10:50;-12.20;99.90
10419;DHT22;5256;48.728;9.140;2022-12-18T01:13:16;-12.10;99.90
10419;DHT22;5256;48.728;9.140;2022-12-18T01:15:48;-12.10;99.90
10419;DHT22;5256;48.728;9.140;2022-12-18T01:18:14;-12.10;99.90
10419;DHT22;5256;48.728;9.140;2022-12-18T01:20:39;-12.10;99.90
10419;DHT22;5256;48.728;9.140;2022-12-18T01:23:05;-12.10;99.90
10419;DHT22;5256;48.728;9.140;2022-12-18T01:25:31;-12.10;99.90
10419;DHT22;5256;48.728;9.140;2022-12-18T01:27:56;-12.10;99.90
10419;DHT22;5256;48.728;9.140;2022-12-18T01:30:22;-12.20;99.90
10419;DHT22;5256;48.728;9.140;2022-12-18T01:32:47;-12.20;99.90
10419;DHT22;5256;48.728;9.140;2022-12-18T01:35:13;-12.20;99.90
10419;DHT22;5256;48.728;9.140;2022-12-18T01:37:39;-12.20;99.90
10419;DHT22;5256;48.728;9.140;2022-12-18T01:40:05;-12.30;99.90
10419;DHT22;5256;48.728;9.140;2022-12-18T01:42:30;-12.20;99.90
10419;DHT22;5256;48.728;9.140;2022-12-18T01:45:29;-12.30;99.90
10419;DHT22;5256;48.728;9.140;2022-12-18T01:47:59;-12.30;99.90
10419;DHT22;5256;48.728;9.140;2022-12-18T01:50:35;-12.30;99.90
10419;DHT22;5256;48.728;9.140;2022-12-18T01:55:32;-12.30;99.90
10419;DHT22;5256;48.728;9.140;2022-12-18T01:58:00;-12.30;99.90
10419;DHT22;5256;48.728;9.140;2022-12-18T02:00:27;-12.20;99.90
10419;DHT22;5256;48.728;9.140;2022-12-18T02:02:53;-12.10;99.90
10419;DHT22;5256;48.728;9.140;2022-12-18T02:05:40;-12.10;99.90
10419;DHT22;5256;48.728;9.140;2022-12-18T02:08:11;-12.00;99.90
10419;DHT22;5256;48.728;9.140;2022-12-18T02:18:47;-11.90;99.90
10419;DHT22;5256;48.728;9.140;2022-12-18T02:21:46;-11.80;99.90
10419;DHT22;5256;48.728;9.140;2022-12-18T02:24:41;-11.80;99.90
10419;DHT22;5256;48.728;9.140;2022-12-18T02:27:11;-11.70;99.90
10419;DHT22;5256;48.728;9.140;2022-12-18T02:29:42;-11.70;99.90
10419;DHT22;5256;48.728;9.140;2022-12-18T02:32:15;-11.60;99.90
10419;DHT22;5256;48.728;9.140;2022-12-18T02:34:43;-11.60;99.90
10419;DHT22;5256;48.728;9.140;2022-12-18T02:37:12;-11.50;99.90
10419;DHT22;5256;48.728;9.140;2022-12-18T02:39:41;-11.40;99.90
10419;DHT22;5256;48.728;9.140;2022-12-18T02:42:08;-11.30;99.90
10419;DHT22;5256;48.728;9.140;2022-12-18T02:44:44;-11.30;99.90
10419;DHT22;5256;48.728;9.140;2022-12-18T02:47:12;-11.30;99.90
10419;DHT22;5256;48.728;9.140;2022-12-18T02:58:29;-11.50;99.90
10419;DHT22;5256;48.728;9.140;2022-12-18T03:01:25;-11.60;99.90
10419;DHT22;5256;48.728;9.140;2022-12-18T03:03:59;-11.50;99.90
10419;DHT22;5256;48.728;9.140;2022-12-18T03:06:32;-11.50;99.90
10419;DHT22;5256;48.728;9.140;2022-12-18T03:09:04;-11.60;99.90
10419;DHT22;5256;48.728;9.140;2022-12-18T03:11:33;-11.60;99.90
10419;DHT22;5256;48.728;9.140;2022-12-18T03:14:20;-11.60;99.90
10419;DHT22;5256;48.728;9.140;2022-12-18T03:16:49;-11.70;99.90
10419;DHT22;5256;48.728;9.140;2022-12-18T03:19:19;-11.60;99.90
10419;DHT22;5256;48.728;9.140;2022-12-18T03:21:49;-11.70;99.90
10419;DHT22;5256;48.728;9.140;2022-12-18T03:24:17;-11.70;99.90
10419;DHT22;5256;48.728;9.140;2022-12-18T03:26:47;-11.60;99.90
10419;DHT22;5256;48.728;9.140;2022-12-18T03:29:18;-11.50;99.90
10419;DHT22;5256;48.728;9.140;2022-12-18T03:31:51;-11.40;99.90
10419;DHT22;5256;48.728;9.140;2022-12-18T03:34:33;-11.50;99.90
10419;DHT22;5256;48.728;9.140;2022-12-18T03:37:03;-11.50;99.90
10419;DHT22;5256;48.728;9.140;2022-12-18T03:39:29;-11.60;99.90
10419;DHT22;5256;48.728;9.140;2022-12-18T03:47:40;-11.60;99.90
10419;DHT22;5256;48.728;9.140;2022-12-18T03:50:15;-11.60;99.90
10419;DHT22;5256;48.728;9.140;2022-12-18T03:52:57;-11.60;99.90
10419;DHT22;5256;48.728;9.140;2022-12-18T03:55:25;-11.60;99.90
10419;DHT22;5256;48.728;9.140;2022-12-18T03:57:53;-11.70;99.90
10419;DHT22;5256;48.728;9.140;2022-12-18T04:00:19;-11.70;99.90
10419;DHT22;5256;48.728;9.140;2022-12-18T04:02:56;-11.70;99.90
10419;DHT22;5256;48.728;9.140;2022-12-18T04:05:23;-11.70;99.90
10419;DHT22;5256;48.728;9.140;2022-12-18T04:07:51;-11.70;99.90
10419;DHT22;5256;48.728;9.140;2022-12-18T04:10:18;-11.60;99.90
10419;DHT22;5256;48.728;9.140;2022-12-18T04:12:44;-11.60;99.90
10419;DHT22;5256;48.728;9.140;2022-12-18T04:15:10;-11.60;99.90
10419;DHT22;5256;48.728;9.140;2022-12-18T04:17:36;-11.60;99.90
10419;DHT22;5256;48.728;9.140;2022-12-18T04:20:03;-11.60;99.90
10419;DHT22;5256;48.728;9.140;2022-12-18T04:22:28;-11.70;99.90
10419;DHT22;5256;48.728;9.140;2022-12-18T04:24:54;-11.80;99.90
10419;DHT22;5256;48.728;9.140;2022-12-18T04:27:19;-11.80;99.90
10419;DHT22;5256;48.728;9.140;2022-12-18T04:29:45;-11.90;99.90
10419;DHT22;5256;48.728;9.140;2022-12-18T04:32:10;-12.00;99.90
10419;DHT22;5256;48.728;9.140;2022-12-18T04:34:36;-12.00;99.90
10419;DHT22;5256;48.728;9.140;2022-12-18T04:37:01;-12.00;99.90
10419;DHT22;5256;48.728;9.140;2022-12-18T04:39:27;-12.10;99.90
10419;DHT22;5256;48.728;9.140;2022-12-18T04:41:52;-12.10;99.90
10419;DHT22;5256;48.728;9.140;2022-12-18T04:44:18;-12.10;99.90
10419;DHT22;5256;48.728;9.140;2022-12-18T04:46:43;-12.10;99.90
10419;DHT22;5256;48.728;9.140;2022-12-18T04:49:09;-12.20;99.90
10419;DHT22;5256;48.728;9.140;2022-12-18T04:51:38;-12.20;99.90
10419;DHT22;5256;48.728;9.140;2022-12-18T04:54:04;-12.30;99.90
10419;DHT22;5256;48.728;9.140;2022-12-18T04:56:31;-12.30;99.90
10419;DHT22;5256;48.728;9.140;2022-12-18T04:58:57;-12.30;99.90
10419;DHT22;5256;48.728;9.140;2022-12-18T05:01:22;-12.30;99.90
10419;DHT22;5256;48.728;9.140;2022-12-18T05:03:48;-12.50;99.90
10419;DHT22;5256;48.728;9.140;2022-12-18T05:06:14;-12.50;99.90
10419;DHT22;5256;48.728;9.140;2022-12-18T05:08:39;-12.50;99.90
10419;DHT22;5256;48.728;9.140;2022-12-18T05:11:08;-12.60;99.90
10419;DHT22;5256;48.728;9.140;2022-12-18T05:13:34;-12.60;99.90
10419;DHT22;5256;48.728;9.140;2022-12-18T05:16:00;-12.60;99.90
10419;DHT22;5256;48.728;9.140;2022-12-18T05:18:26;-12.60;99.90
10419;DHT22;5256;48.728;9.140;2022-12-18T05:20:53;-12.70;99.90
10419;DHT22;5256;48.728;9.140;2022-12-18T05:23:19;-12.70;99.90
10419;DHT22;5256;48.728;9.140;2022-12-18T05:28:21;-12.80;99.90
10419;DHT22;5256;48.728;9.140;2022-12-18T05:30:52;-12.80;99.90
10419;DHT22;5256;48.728;9.140;2022-12-18T05:33:18;-12.80;99.90
10419;DHT22;5256;48.728;9.140;2022-12-18T05:35:49;-12.90;99.90
10419;DHT22;5256;48.728;9.140;2022-12-18T05:38:15;-12.90;99.90
10419;DHT22;5256;48.728;9.140;2022-12-18T05:40:42;-12.90;99.90
10419;DHT22;5256;48.728;9.140;2022-12-18T05:43:08;-13.00;99.90
10419;DHT22;5256;48.728;9.140;2022-12-18T05:45:37;-13.00;99.90
10419;DHT22;5256;48.728;9.140;2022-12-18T05:48:03;-13.00;99.90
10419;DHT22;5256;48.728;9.140;2022-12-18T05:50:29;-13.00;99.90
10419;DHT22;5256;48.728;9.140;2022-12-18T05:52:54;-13.00;99.90
10419;DHT22;5256;48.728;9.140;2022-12-18T05:55:20;-12.90;99.90
10419;DHT22;5256;48.728;9.140;2022-12-18T05:57:45;-12.80;99.90
10419;DHT22;5256;48.728;9.140;2022-12-18T06:00:11;-12.90;99.90
10419;DHT22;5256;48.728;9.140;2022-12-18T06:02:37;-12.90;99.90
10419;DHT22;5256;48.728;9.140;2022-12-18T06:05:03;-12.90;99.90
10419;DHT22;5256;48.728;9.140;2022-12-18T06:07:28;-12.90;99.90
10419;DHT22;5256;48.728;9.140;2022-12-18T06:09:54;-12.90;99.90
10419;DHT22;5256;48.728;9.140;2022-12-18T06:12:19;-12.90;99.90
10419;DHT22;5256;48.728;9.140;2022-12-18T06:14:46;-12.90;99.90
10419;DHT22;5256;48.728;9.140;2022-12-18T06:17:11;-13.00;99.90
10419;DHT22;5256;48.728;9.140;2022-12-18T06:19:37;-13.00;99.90
10419;DHT22;5256;48.728;9.140;2022-12-18T06:22:03;-12.90;99.90
10419;DHT22;5256;48.728;9.140;2022-12-18T06:24:28;-12.90;99.90
10419;DHT22;5256;48.728;9.140;2022-12-18T06:26:54;-12.80;99.90
10419;DHT22;5256;48.728;9.140;2022-12-18T06:29:20;-12.90;99.90
10419;DHT22;5256;48.728;9.140;2022-12-18T06:31:45;-12.90;99.90
10419;DHT22;5256;48.728;9.140;2022-12-18T06:34:11;-12.80;99.90
10419;DHT22;5256;48.728;9.140;2022-12-18T06:36:37;-12.80;99.90
10419;DHT22;5256;48.728;9.140;2022-12-18T06:39:02;-12.90;99.90
10419;DHT22;5256;48.728;9.140;2022-12-18T06:41:28;-13.00;99.90
10419;DHT22;5256;48.728;9.140;2022-12-18T06:43:53;-13.00;99.90
10419;DHT22;5256;48.728;9.140;2022-12-18T06:46:19;-13.10;99.90
10419;DHT22;5256;48.728;9.140;2022-12-18T06:48:47;-13.10;99.90
10419;DHT22;5256;48.728;9.140;2022-12-18T06:51:16;-13.10;99.90
10419;DHT22;5256;48.728;9.140;2022-12-18T06:53:42;-13.20;99.90
10419;DHT22;5256;48.728;9.140;2022-12-18T06:56:08;-13.10;99.90
10419;DHT22;5256;48.728;9.140;2022-12-18T06:58:33;-13.10;99.90
10419;DHT22;5256;48.728;9.140;2022-12-18T07:01:03;-13.10;99.90
10419;DHT22;5256;48.728;9.140;2022-12-18T07:03:30;-13.10;99.90
10419;DHT22;5256;48.728;9.140;2022-12-18T07:05:55;-13.10;99.90
10419;DHT22;5256;48.728;9.140;2022-12-18T07:08:21;-13.10;99.90
10419;DHT22;5256;48.728;9.140;2022-12-18T07:10:47;-13.10;99.90
10419;DHT22;5256;48.728;9.140;2022-12-18T07:13:15;-13.00;99.90
10419;DHT22;5256;48.728;9.140;2022-12-18T07:15:41;-13.00;99.90
10419;DHT22;5256;48.728;9.140;2022-12-18T07:18:06;-13.00;99.90
10419;DHT22;5256;48.728;9.140;2022-12-18T07:20:32;-13.00;99.90
10419;DHT22;5256;48.728;9.140;2022-12-18T07:22:57;-13.00;99.90
10419;DHT22;5256;48.728;9.140;2022-12-18T07:25:23;-13.00;99.90
10419;DHT22;5256;48.728;9.140;2022-12-18T07:27:49;-12.90;99.90
10419;DHT22;5256;48.728;9.140;2022-12-18T07:30:14;-12.90;99.90
10419;DHT22;5256;48.728;9.140;2022-12-18T07:32:40;-12.80;99.90
10419;DHT22;5256;48.728;9.140;2022-12-18T07:35:05;-12.70;99.90
10419;DHT22;5256;48.728;9.140;2022-12-18T07:40:18;-12.50;99.90
10419;DHT22;5256;48.728;9.140;2022-12-18T07:42:44;-12.40;99.90
10419;DHT22;5256;48.728;9.140;2022-12-18T07:45:10;-12.30;99.90
10419;DHT22;5256;48.728;9.140;2022-12-18T07:47:36;-12.20;99.90
10419;DHT22;5256;48.728;9.140;2022-12-18T07:50:03;-12.10;99.90
10419;DHT22;5256;48.728;9.140;2022-12-18T07:52:32;-12.00;99.90
10419;DHT22;5256;48.728;9.140;2022-12-18T07:54:57;-12.00;99.90
10419;DHT22;5256;48.728;9.140;2022-12-18T07:57:23;-11.90;99.90
10419;DHT22;5256;48.728;9.140;2022-12-18T07:59:48;-11.80;99.90
10419;DHT22;5256;48.728;9.140;2022-12-18T08:02:14;-11.70;99.90
10419;DHT22;5256;48.728;9.140;2022-12-18T08:04:39;-11.60;99.90
10419;DHT22;5256;48.728;9.140;2022-12-18T08:07:05;-11.50;99.90
10419;DHT22;5256;48.728;9.140;2022-12-18T08:09:31;-11.30;99.90
10419;DHT22;5256;48.728;9.140;2022-12-18T08:11:56;-11.10;99.90
10419;DHT22;5256;48.728;9.140;2022-12-18T08:14:22;-11.00;99.90
10419;DHT22;5256;48.728;9.140;2022-12-18T08:16:48;-10.90;99.90
10419;DHT22;5256;48.728;9.140;2022-12-18T08:19:13;-10.80;99.90
10419;DHT22;5256;48.728;9.140;2022-12-18T08:21:42;-10.70;99.90
10419;DHT22;5256;48.728;9.140;2022-12-18T08:24:09;-10.60;99.90
10419;DHT22;5256;48.728;9.140;2022-12-18T08:26:34;-10.60;99.90
10419;DHT22;5256;48.728;9.140;2022-12-18T08:29:00;-10.40;99.90
10419;DHT22;5256;48.728;9.140;2022-12-18T08:34:48;-10.20;99.90
10419;DHT22;5256;48.728;9.140;2022-12-18T08:37:13;-10.10;99.90
10419;DHT22;5256;48.728;9.140;2022-12-18T08:39:39;-9.90;99.90
10419;DHT22;5256;48.728;9.140;2022-12-18T08:42:04;-9.90;99.90
10419;DHT22;5256;48.728;9.140;2022-12-18T08:44:48;-9.70;99.90
10419;DHT22;5256;48.728;9.140;2022-12-18T08:47:14;-9.60;99.90
10419;DHT22;5256;48.728;9.140;2022-12-18T08:49:39;-9.60;99.90
10419;DHT22;5256;48.728;9.140;2022-12-18T08:52:05;-9.50;99.90
10419;DHT22;5256;48.728;9.140;2022-12-18T08:54:31;-9.40;99.90
10419;DHT22;5256;48.728;9.140;2022-12-18T08:56:56;-9.30;99.90
10419;DHT22;5256;48.728;9.140;2022-12-18T08:59:22;-9.20;99.90
10419;DHT22;5256;48.728;9.140;2022-12-18T09:01:48;-9.10;99.90
10419;DHT22;5256;48.728;9.140;2022-12-18T09:04:14;-9.00;99.90
10419;DHT22;5256;48.728;9.140;2022-12-18T09:06:40;-8.80;99.90
10419;DHT22;5256;48.728;9.140;2022-12-18T09:09:05;-8.70;99.90
10419;DHT22;5256;48.728;9.140;2022-12-18T09:11:32;-8.60;99.90
10419;DHT22;5256;48.728;9.140;2022-12-18T09:13:59;-8.40;99.90
10419;DHT22;5256;48.728;9.140;2022-12-18T09:16:27;-8.30;99.90
10419;DHT22;5256;48.728;9.140;2022-12-18T09:18:54;-8.20;99.90
10419;DHT22;5256;48.728;9.140;2022-12-18T09:21:25;-8.00;99.90
10419;DHT22;5256;48.728;9.140;2022-12-18T09:23:51;-7.90;99.90
10419;DHT22;5256;48.728;9.140;2022-12-18T09:26:42;-7.80;99.90
10419;DHT22;5256;48.728;9.140;2022-12-18T09:29:07;-7.70;99.90
10419;DHT22;5256;48.728;9.140;2022-12-18T09:31:34;-7.50;99.90
10419;DHT22;5256;48.728;9.140;2022-12-18T09:34:00;-7.40;99.90
10419;DHT22;5256;48.728;9.140;2022-12-18T09:36:25;-7.40;99.90
10419;DHT22;5256;48.728;9.140;2022-12-18T09:38:51;-7.30;99.90
10419;DHT22;5256;48.728;9.140;2022-12-18T09:44:00;-7.20;99.90
10419;DHT22;5256;48.728;9.140;2022-12-18T09:46:30;-7.10;99.90
10419;DHT22;5256;48.728;9.140;2022-12-18T09:49:01;-6.90;99.90
10419;DHT22;5256;48.728;9.140;2022-12-18T09:51:32;-6.80;99.90
10419;DHT22;5256;48.728;9.140;2022-12-18T09:54:04;-6.80;99.90
10419;DHT22;5256;48.728;9.140;2022-12-18T09:56:35;-6.70;99.90
10419;DHT22;5256;48.728;9.140;2022-12-18T09:59:04;-6.60;99.90
10419;DHT22;5256;48.728;9.140;2022-12-18T10:01:31;-6.60;99.90
10419;DHT22;5256;48.728;9.140;2022-12-18T10:03:57;-6.50;99.90
10419;DHT22;5256;48.728;9.140;2022-12-18T10:06:40;-6.50;99.90
10419;DHT22;5256;48.728;9.140;2022-12-18T10:09:53;-6.40;99.90
10419;DHT22;5256;48.728;9.140;2022-12-18T10:12:38;-6.30;99.90
10419;DHT22;5256;48.728;9.140;2022-12-18T10:21:09;-5.90;99.90
10419;DHT22;5256;48.728;9.140;2022-12-18T10:23:51;-5.80;99.90
10419;DHT22;5256;48.728;9.140;2022-12-18T10:26:19;-5.70;99.90
10419;DHT22;5256;48.728;9.140;2022-12-18T10:28:45;-5.70;99.90
10419;DHT22;5256;48.728;9.140;2022-12-18T10:31:23;-5.70;99.90
10419;DHT22;5256;48.728;9.140;2022-12-18T10:33:49;-5.70;99.90
10419;DHT22;5256;48.728;9.140;2022-12-18T10:36:15;-5.60;99.90
10419;DHT22;5256;48.728;9.140;2022-12-18T10:38:40;-5.50;99.90
10419;DHT22;5256;48.728;9.140;2022-12-18T10:44:23;-5.00;99.90
10419;DHT22;5256;48.728;9.140;2022-12-18T10:46:55;-4.90;99.90
10419;DHT22;5256;48.728;9.140;2022-12-18T10:49:32;-4.80;99.90
10419;DHT22;5256;48.728;9.140;2022-12-18T10:52:28;-4.70;99.90
10419;DHT22;5256;48.728;9.140;2022-12-18T10:55:03;-4.70;99.90
10419;DHT22;5256;48.728;9.140;2022-12-18T10:59:58;-4.60;99.90
10419;DHT22;5256;48.728;9.140;2022-12-18T11:02:34;-4.60;99.90
10419;DHT22;5256;48.728;9.140;2022-12-18T11:05:00;-4.50;99.90
10419;DHT22;5256;48.728;9.140;2022-12-18T11:07:48;-4.30;99.90
10419;DHT22;5256;48.728;9.140;2022-12-18T11:10:20;-4.20;99.90
10419;DHT22;5256;48.728;9.140;2022-12-18T11:12:47;-4.10;99.90
10419;DHT22;5256;48.728;9.140;2022-12-18T11:15:20;-3.90;99.90
10419;DHT22;5256;48.728;9.140;2022-12-18T11:17:48;-3.70;99.90
10419;DHT22;5256;48.728;9.140;2022-12-18T11:20:31;-3.70;99.90
10419;DHT22;5256;48.728;9.140;2022-12-18T11:22:59;-3.60;99.90
10419;DHT22;5256;48.728;9.140;2022-12-18T11:25:26;-3.60;99.90
10419;DHT22;5256;48.728;9.140;2022-12-18T11:27:59;-3.50;99.90
10419;DHT22;5256;48.728;9.140;2022-12-18T11:30:34;-3.60;99.90
10419;DHT22;5256;48.728;9.140;2022-12-18T11:33:16;-3.70;99.90
10419;DHT22;5256;48.728;9.140;2022-12-18T11:36:07;-3.70;99.90
10419;DHT22;5256;48.728;9.140;2022-12-18T11:38:44;-3.70;99.90
10419;DHT22;5256;48.728;9.140;2022-12-18T11:43:59;-3.70;99.90
10419;DHT22;5256;48.728;9.140;2022-12-18T11:46:27;-3.70;99.90
10419;DHT22;5256;48.728;9.140;2022-12-18T11:49:12;-3.60;99.90
10419;DHT22;5256;48.728;9.140;2022-12-18T11:52:01;-3.50;99.90
10419;DHT22;5256;48.728;9.140;2022-12-18T11:54:28;-3.40;99.90
10419;DHT22;5256;48.728;9.140;2022-12-18T12:02:47;-3.30;99.90
10419;DHT22;5256;48.728;9.140;2022-12-18T12:05:36;-3.40;99.90
10419;DHT22;5256;48.728;9.140;2022-12-18T12:08:27;-3.50;99.90
10419;DHT22;5256;48.728;9.140;2022-12-18T12:11:05;-3.50;99.90
10419;DHT22;5256;48.728;9.140;2022-12-18T12:16:18;-3.60;99.90
10419;DHT22;5256;48.728;9.140;2022-12-18T12:19:15;-3.50;99.90
10419;DHT22;5256;48.728;9.140;2022-12-18T12:22:23;-3.50;99.90
10419;DHT22;5256;48.728;9.140;2022-12-18T12:27:44;-3.40;99.90
10419;DHT22;5256;48.728;9.140;2022-12-18T12:30:22;-3.40;99.90
10419;DHT22;5256;48.728;9.140;2022-12-18T12:38:43;-3.20;99.90
10419;DHT22;5256;48.728;9.140;2022-12-18T12:41:14;-3.00;99.90
10419;DHT22;5256;48.728;9.140;2022-12-18T12:44:04;-3.10;99.90
10419;DHT22;5256;48.728;9.140;2022-12-18T12:46:35;-3.10;99.90
10419;DHT22;5256;48.728;9.140;2022-12-18T12:49:07;-3.10;99.90
10419;DHT22;5256;48.728;9.140;2022-12-18T12:51:38;-3.00;99.90
10419;DHT22;5256;48.728;9.140;2022-12-18T12:54:14;-3.00;99.90
10419;DHT22;5256;48.728;9.140;2022-12-18T12:57:10;-2.90;99.90
10419;DHT22;5256;48.728;9.140;2022-12-18T13:02:39;-2.80;99.90
10419;DHT22;5256;48.728;9.140;2022-12-18T13:07:49;-2.80;99.90
10419;DHT22;5256;48.728;9.140;2022-12-18T13:15:42;-2.60;99.90
10419;DHT22;5256;48.728;9.140;2022-12-18T13:20:40;-2.80;99.90
10419;DHT22;5256;48.728;9.140;2022-12-18T13:34:23;-2.70;99.90
10419;DHT22;5256;48.728;9.140;2022-12-18T13:36:49;-2.70;99.90
10419;DHT22;5256;48.728;9.140;2022-12-18T13:41:45;-2.70;99.90
10419;DHT22;5256;48.728;9.140;2022-12-18T13:44:33;-2.80;99.90
10419;DHT22;5256;48.728;9.140;2022-12-18T13:47:00;-2.80;99.90
10419;DHT22;5256;48.728;9.140;2022-12-18T13:49:39;-2.70;99.90
10419;DHT22;5256;48.728;9.140;2022-12-18T13:52:27;-2.80;99.90
10419;DHT22;5256;48.728;9.140;2022-12-18T13:54:55;-2.70;99.90
10419;DHT22;5256;48.728;9.140;2022-12-18T13:57:37;-2.80;99.90
10419;DHT22;5256;48.728;9.140;2022-12-18T14:02:47;-3.00;99.90
10419;DHT22;5256;48.728;9.140;2022-12-18T14:05:26;-3.10;99.90
10419;DHT22;5256;48.728;9.140;2022-12-18T14:07:52;-3.10;99.90
10419;DHT22;5256;48.728;9.140;2022-12-18T14:10:19;-3.10;99.90
10419;DHT22;5256;48.728;9.140;2022-12-18T14:12:47;-3.20;99.90
10419;DHT22;5256;48.728;9.140;2022-12-18T14:20:34;-3.40;99.90
10419;DHT22;5256;48.728;9.140;2022-12-18T14:23:00;-3.40;99.90
10419;DHT22;5256;48.728;9.140;2022-12-18T14:25:34;-3.40;99.90
10419;DHT22;5256;48.728;9.140;2022-12-18T14:28:12;-3.40;99.90
10419;DHT22;5256;48.728;9.140;2022-12-18T14:30:40;-3.50;99.90
10419;DHT22;5256;48.728;9.140;2022-12-18T14:33:11;-3.60;99.90
10419;DHT22;5256;48.728;9.140;2022-12-18T14:35:40;-3.70;99.90
10419;DHT22;5256;48.728;9.140;2022-12-18T14:38:36;-3.80;99.90
10419;DHT22;5256;48.728;9.140;2022-12-18T14:43:34;-3.90;99.90
10419;DHT22;5256;48.728;9.140;2022-12-18T14:46:00;-3.90;99.90
10419;DHT22;5256;48.728;9.140;2022-12-18T14:48:40;-3.90;99.90
10419;DHT22;5256;48.728;9.140;2022-12-18T14:51:19;-4.00;99.90
10419;DHT22;5256;48.728;9.140;2022-12-18T14:54:06;-4.10;99.90
10419;DHT22;5256;48.728;9.140;2022-12-18T14:56:45;-4.20;99.90
10419;DHT22;5256;48.728;9.140;2022-12-18T14:59:15;-4.30;99.90
10419;DHT22;5256;48.728;9.140;2022-12-18T15:01:48;-4.40;99.90
10419;DHT22;5256;48.728;9.140;2022-12-18T15:09:37;-4.70;99.90
10419;DHT22;5256;48.728;9.140;2022-12-18T15:12:04;-4.80;99.90
10419;DHT22;5256;48.728;9.140;2022-12-18T15:14:40;-5.00;99.90
10419;DHT22;5256;48.728;9.140;2022-12-18T15:17:21;-5.10;99.90
10419;DHT22;5256;48.728;9.140;2022-12-18T15:19:48;-5.10;99.90
10419;DHT22;5256;48.728;9.140;2022-12-18T15:22:35;-5.30;99.90
10419;DHT22;5256;48.728;9.140;2022-12-18T15:25:02;-5.40;99.90
10419;DHT22;5256;48.728;9.140;2022-12-18T15:27:31;-5.50;99.90
10419;DHT22;5256;48.728;9.140;2022-12-18T15:32:41;-5.60;99.90
10419;DHT22;5256;48.728;9.140;2022-12-18T15:35:14;-5.70;99.90
10419;DHT22;5256;48.728;9.140;2022-12-18T15:37:40;-5.70;99.90
10419;DHT22;5256;48.728;9.140;2022-12-18T15:40:07;-5.70;99.90
10419;DHT22;5256;48.728;9.140;2022-12-18T15:42:33;-5.80;99.90
10419;DHT22;5256;48.728;9.140;2022-12-18T15:45:25;-5.80;99.90
10419;DHT22;5256;48.728;9.140;2022-12-18T15:47:50;-5.90;99.90
10419;DHT22;5256;48.728;9.140;2022-12-18T15:50:16;-5.80;99.90
10419;DHT22;5256;48.728;9.140;2022-12-18T15:52:45;-5.90;99.90
10419;DHT22;5256;48.728;9.140;2022-12-18T15:55:13;-5.90;99.90
10419;DHT22;5256;48.728;9.140;2022-12-18T15:57:57;-6.00;99.90
10419;DHT22;5256;48.728;9.140;2022-12-18T16:00:23;-6.10;99.90
10419;DHT22;5256;48.728;9.140;2022-12-18T16:02:49;-6.10;99.90
10419;DHT22;5256;48.728;9.140;2022-12-18T16:05:16;-6.20;99.90
10419;DHT22;5256;48.728;9.140;2022-12-18T16:07:42;-6.20;99.90
10419;DHT22;5256;48.728;9.140;2022-12-18T16:10:08;-6.30;99.90
10419;DHT22;5256;48.728;9.140;2022-12-18T16:12:34;-6.30;99.90
10419;DHT22;5256;48.728;9.140;2022-12-18T16:15:00;-6.40;99.90
10419;DHT22;5256;48.728;9.140;2022-12-18T16:17:26;-6.40;99.90
10419;DHT22;5256;48.728;9.140;2022-12-18T16:19:52;-6.40;99.90
10419;DHT22;5256;48.728;9.140;2022-12-18T16:22:21;-6.40;99.90
10419;DHT22;5256;48.728;9.140;2022-12-18T16:24:47;-6.40;99.90
10419;DHT22;5256;48.728;9.140;2022-12-18T16:27:13;-6.40;99.90
10419;DHT22;5256;48.728;9.140;2022-12-18T16:29:38;-6.40;99.90
10419;DHT22;5256;48.728;9.140;2022-12-18T16:32:04;-6.30;99.90
10419;DHT22;5256;48.728;9.140;2022-12-18T16:34:32;-6.20;99.90
10419;DHT22;5256;48.728;9.140;2022-12-18T16:37:01;-6.10;99.90
10419;DHT22;5256;48.728;9.140;2022-12-18T16:39:27;-6.10;99.90
10419;DHT22;5256;48.728;9.140;2022-12-18T16:41:53;-6.00;99.90
10419;DHT22;5256;48.728;9.140;2022-12-18T16:44:19;-6.00;99.90
10419;DHT22;5256;48.728;9.140;2022-12-18T16:46:45;-6.00;99.90
10419;DHT22;5256;48.728;9.140;2022-12-18T16:49:12;-6.00;99.90
10419;DHT22;5256;48.728;9.140;2022-12-18T16:51:38;-5.90;99.90
10419;DHT22;5256;48.728;9.140;2022-12-18T16:54:04;-5.90;99.90
10419;DHT22;5256;48.728;9.140;2022-12-18T16:56:33;-5.80;99.90
10419;DHT22;5256;48.728;9.140;2022-12-18T16:59:00;-5.90;99.90
10419;DHT22;5256;48.728;9.140;2022-12-18T17:01:28;-5.80;99.90
10419;DHT22;5256;48.728;9.140;2022-12-18T17:04:02;-5.80;99.90
10419;DHT22;5256;48.728;9.140;2022-12-18T17:06:30;-5.70;99.90
10419;DHT22;5256;48.728;9.140;2022-12-18T17:08:57;-5.70;99.90
10419;DHT22;5256;48.728;9.140;2022-12-18T17:11:24;-5.70;99.90
10419;DHT22;5256;48.728;9.140;2022-12-18T17:13:50;-5.60;99.90
10419;DHT22;5256;48.728;9.140;2022-12-18T17:16:16;-5.50;99.90
10419;DHT22;5256;48.728;9.140;2022-12-18T17:18:42;-5.50;99.90
10419;DHT22;5256;48.728;9.140;2022-12-18T17:21:09;-5.50;99.90
10419;DHT22;5256;48.728;9.140;2022-12-18T17:23:36;-5.40;99.90
10419;DHT22;5256;48.728;9.140;2022-12-18T17:26:02;-5.40;99.90
10419;DHT22;5256;48.728;9.140;2022-12-18T17:28:29;-5.30;99.90
10419;DHT22;5256;48.728;9.140;2022-12-18T17:30:55;-5.30;99.90
10419;DHT22;5256;48.728;9.140;2022-12-18T17:33:21;-5.30;99.90
10419;DHT22;5256;48.728;9.140;2022-12-18T17:35:47;-5.30;99.90
10419;DHT22;5256;48.728;9.140;2022-12-18T17:38:14;-5.20;99.90
10419;DHT22;5256;48.728;9.140;2022-12-18T17:40:40;-5.10;99.90
10419;DHT22;5256;48.728;9.140;2022-12-18T17:43:07;-5.10;99.90
10419;DHT22;5256;48.728;9.140;2022-12-18T17:45:35;-5.10;99.90
10419;DHT22;5256;48.728;9.140;2022-12-18T17:48:01;-5.00;99.90